Coral Canyon GC
1925 N Canyon Greens Drive, Washington
Last Weather Update:11/25/2011 8:00:00 AM
Date
ETo
ETc
Rain
Irrigation
Req
Temp
Max
Temp
Min
Temp
Avg
Avg RH
Avg Wind
Avg Solar
inches
inches
incehs
inches
F
F
F
%
%
watts/m2
10/1/2011 0.17" 0.10" 0.00" 0.10" 88.0° 61.6° 76.8° 32.3% 3.8 MPH 187.9w/m2
10/2/2011 0.16" 0.10" 0.00" 0.10" 88.1° 54.2° 72.3° 40.4% 2.6 MPH 208.5w/m2
10/3/2011 0.11" 0.06" 0.03" 0.04" 84.2° 57.3° 69.8° 46.7% 3.4 MPH 108.9w/m2
10/4/2011 0.09" 0.05" 0.16" -0.07" 74.9° 51.4° 62.8° 70.2% 2.8 MPH 121.5w/m2
10/5/2011 0.03" 0.02" 0.83" -0.65" 62.1° 50.1° 55.7° 76.9% 1.7 MPH 21.6w/m2
10/6/2011 0.08" 0.04" 0.18" -0.10" 59.3° 40.9° 49.4° 70.5% 1.9 MPH 120.8w/m2
10/7/2011 0.10" 0.06" 0.00" 0.06" 61.1° 34.8° 47.3° 72.6% 0.9 MPH 198.3w/m2
10/8/2011 0.13" 0.08" 0.00" 0.08" 69.0° 39.7° 54.4° 56.5% 3.2 MPH 204.0w/m2
10/9/2011 0.11" 0.07" 0.00" 0.07" 70.3° 42.2° 54.8° 53.6% 1.6 MPH 214.0w/m2
10/10/2011 0.11" 0.06" 0.00" 0.06" 74.2° 43.8° 58.7° 46.8% 1.8 MPH 183.3w/m2
10/11/2011 0.12" 0.07" 0.00" 0.07" 79.1° 42.2° 59.5° 54.7% 1.6 MPH 205.7w/m2
10/12/2011 0.12" 0.07" 0.00" 0.07" 81.1° 43.4° 61.2° 53.4% 1.7 MPH 206.5w/m2
10/13/2011 0.12" 0.06" 0.00" 0.06" 84.2° 41.9° 62.2° 42.2% 1.2 MPH 205.1w/m2
10/14/2011 0.12" 0.06" 0.00" 0.06" 85.5° 44.2° 63.1° 48.9% 1.1 MPH 199.0w/m2
10/15/2011 0.13" 0.07" 0.00" 0.07" 87.4° 46.2° 65.4° 43.0% 1.7 MPH 199.6w/m2
10/16/2011 0.11" 0.06" 0.00" 0.06" 85.4° 45.3° 64.6° 42.5% 1.0 MPH 195.8w/m2
10/17/2011 0.14" 0.07" 0.00" 0.07" 80.5° 46.5° 63.3° 42.9% 2.7 MPH 194.2w/m2
10/18/2011 0.12" 0.06" 0.00" 0.06" 80.9° 41.1° 59.2° 39.2% 1.8 MPH 193.7w/m2
10/19/2011 0.12" 0.07" 0.00" 0.07" 83.0° 40.1° 59.6° 41.6% 1.8 MPH 196.0w/m2
10/20/2011 0.11" 0.06" 0.00" 0.06" 82.4° 40.3° 58.6° 42.6% 1.1 MPH 193.1w/m2
10/21/2011 0.11" 0.06" 0.00" 0.06" 79.6° 38.5° 57.5° 45.2% 1.1 MPH 190.0w/m2
10/22/2011 0.10" 0.06" 0.00" 0.06" 81.4° 40.3° 59.4° 42.1% 1.1 MPH 187.4w/m2
10/23/2011 0.11" 0.06" 0.00" 0.06" 84.9° 46.8° 62.6° 34.3% 1.4 MPH 187.3w/m2
10/24/2011 0.10" 0.05" 0.00" 0.05" 80.3° 41.5° 61.7° 37.2% 1.6 MPH 172.0w/m2
10/25/2011 0.13" 0.07" 0.00" 0.07" 80.4° 55.8° 68.3° 31.1% 3.4 MPH 167.6w/m2
10/26/2011 0.13" 0.07" 0.00" 0.07" 61.1° 48.2° 53.7° 39.5% 6.0 MPH 166.9w/m2
10/27/2011 0.09" 0.05" 0.00" 0.05" 64.1° 30.2° 45.5° 37.0% 1.5 MPH 181.7w/m2
10/28/2011 0.09" 0.05" 0.00" 0.05" 72.9° 30.1° 49.3° 39.2% 1.7 MPH 179.2w/m2
10/29/2011 0.10" 0.05" 0.00" 0.05" 71.2° 35.3° 52.1° 34.4% 2.2 MPH 178.4w/m2
10/30/2011 0.09" 0.05" 0.00" 0.05" 76.9° 36.1° 52.7° 41.7% 1.7 MPH 174.6w/m2
10/31/2011 0.10" 0.05" 0.00" 0.05" 74.7° 34.3° 53.6° 44.2% 2.0 MPH 171.8w/m2
Totals: 3.45" 1.89" 1.20" 0.93" 88.1° 30.1° 59.2° 46.6% 2.0 MPH 177.9w/m2